South Egg Harbor, New Jersey
Current Conditions -  °F | °C
As of 2:54 PM on Friday 28 Nov 2014 (Local Time) from KACY Reporting Station
Broken Clouds Broken Clouds  
Wind Chill: 29°   Ceiling: 4500
Heat Index: 37°   Visibility: 10mi
Dew Point: 19°   Wind: 13mph
Humidity: 48%   Direction: 330°NNW
Pressure: 30.19"   Gusts: NA
Location:  39.5436°N, 74.5919°W
Report Text: KACY 281954Z 33011KT 10SM BKN045 03/M07 A3019 RMK AO2 SLP225 T00281072
Loading
Personal Weather Stations






























Interactive Weather Map New forecast layout! Learn more

10-Day Weather Forecast

Advertisements
Track Severe Weather on mobile